Centerville, Utah
Current Conditions -  °F | °C
As of 9:53 PM on Friday 24 Oct 2014 (Local Time) from KSLC Reporting Station
Clear Clear  
Wind Chill: 57°   Ceiling: Unl
Heat Index: 57°   Visibility: 10mi
Dew Point: 37°   Wind: 7mph
Humidity: 47%   Direction: 140°SE
Pressure: 30.08"   Gusts: NA
Location:  40.92°N, 111.87°W
Report Text: KSLC 250353Z 14006KT 10SM CLR 14/03 A3008 RMK AO2 SLP156 T01390028
Loading
Personal Weather Stations






























Interactive Weather Map
Tropical Storm Tracking
New forecast layout! Learn more

10-Day Weather Forecast

Advertisements
Track Severe Weather on mobile